createdAt,value
2022-10-07T00:01:12.823Z,5.40
2022-10-07T00:03:41.004Z,5.80
2022-10-07T00:06:15.077Z,5.30
2022-10-07T00:08:45.703Z,5.20
2022-10-07T00:11:19.319Z,5.00
2022-10-07T00:13:49.217Z,4.80
2022-10-07T00:16:21.523Z,5.60
2022-10-07T00:18:49.541Z,5.60
2022-10-07T00:21:19.121Z,5.30
2022-10-07T00:23:47.901Z,5.10
2022-10-07T00:26:21.691Z,5.20
2022-10-07T00:28:50.364Z,5.80
2022-10-07T00:31:21.959Z,5.70
2022-10-07T00:33:50.873Z,6.30
2022-10-07T00:36:23.853Z,6.20
2022-10-07T00:38:53.839Z,6.00
2022-10-07T00:41:26.086Z,6.20
2022-10-07T00:43:54.570Z,6.10
2022-10-07T00:46:38.820Z,6.10
2022-10-07T00:49:11.961Z,6.70
2022-10-07T00:51:43.688Z,5.70
2022-10-07T00:54:16.408Z,5.80
2022-10-07T00:56:47.021Z,5.80
2022-10-07T00:59:16.805Z,7.30
2022-10-07T01:01:44.622Z,7.90
2022-10-07T01:04:15.090Z,7.40
2022-10-07T01:06:45.891Z,8.20
2022-10-07T01:09:14.938Z,7.00
2022-10-07T01:11:56.121Z,6.60
2022-10-07T01:14:51.991Z,6.40
2022-10-07T01:17:29.771Z,6.40
2022-10-07T01:20:16.848Z,5.80
2022-10-07T01:23:06.353Z,6.10
2022-10-07T01:25:52.547Z,7.00
2022-10-07T01:28:26.034Z,7.20
2022-10-07T01:30:59.108Z,7.30
2022-10-07T01:33:31.764Z,6.80
2022-10-07T01:36:07.229Z,7.90
2022-10-07T01:38:38.864Z,7.30
2022-10-07T01:41:17.909Z,7.00
2022-10-07T01:43:48.169Z,7.60
2022-10-07T01:46:22.446Z,7.30
2022-10-07T01:48:52.064Z,6.80
2022-10-07T01:51:28.594Z,6.70
2022-10-07T01:54:11.675Z,5.90
2022-10-07T01:57:22.135Z,6.10
2022-10-07T02:00:12.150Z,5.70
2022-10-07T02:03:21.633Z,6.00
2022-10-07T02:06:15.814Z,5.40
2022-10-07T02:08:54.802Z,5.10
2022-10-07T02:11:33.567Z,5.40
2022-10-07T02:14:14.255Z,5.30
2022-10-07T02:16:53.851Z,5.30
2022-10-07T02:19:26.329Z,5.50
2022-10-07T02:21:57.588Z,5.20
2022-10-07T02:24:29.565Z,5.30
2022-10-07T02:27:01.815Z,5.30
2022-10-07T02:29:34.114Z,5.40
2022-10-07T02:32:07.519Z,7.00
2022-10-07T02:34:36.718Z,6.20
2022-10-07T02:37:15.040Z,6.50
2022-10-07T02:39:44.840Z,5.80
2022-10-07T02:42:25.556Z,5.40
2022-10-07T02:45:02.355Z,5.80
2022-10-07T02:47:38.193Z,5.50
2022-10-07T02:50:13.221Z,5.40
2022-10-07T02:52:45.011Z,6.40
2022-10-07T02:55:17.741Z,6.10
2022-10-07T02:57:48.456Z,6.10
2022-10-07T03:00:19.166Z,6.10
2022-10-07T03:02:57.738Z,6.50
2022-10-07T03:05:33.209Z,7.00
2022-10-07T03:08:06.361Z,6.60
2022-10-07T03:10:35.356Z,6.50
2022-10-07T03:13:05.117Z,6.30
2022-10-07T03:15:41.151Z,6.60
2022-10-07T03:18:26.757Z,6.10
2022-10-07T03:21:06.260Z,6.70
2022-10-07T03:23:34.893Z,5.50
2022-10-07T03:26:02.767Z,6.50
2022-10-07T03:28:37.763Z,6.40
2022-10-07T03:31:08.978Z,6.50
2022-10-07T03:33:38.760Z,7.40
2022-10-07T03:36:10.963Z,6.40
2022-10-07T03:38:40.609Z,6.20
2022-10-07T03:41:09.071Z,7.60
2022-10-07T03:43:37.782Z,7.40
2022-10-07T03:46:07.309Z,6.90
2022-10-07T03:48:36.733Z,6.00
2022-10-07T03:51:04.887Z,6.80
2022-10-07T03:53:34.749Z,6.90
2022-10-07T03:56:03.060Z,6.70
2022-10-07T03:58:31.428Z,7.10
2022-10-07T04:01:11.336Z,6.70
2022-10-07T04:03:43.292Z,7.40
2022-10-07T04:06:11.318Z,7.60
2022-10-07T04:08:40.855Z,7.60
2022-10-07T04:11:09.297Z,8.10
2022-10-07T04:13:40.260Z,8.20
2022-10-07T04:16:10.182Z,7.00
2022-10-07T04:18:38.363Z,8.10
2022-10-07T04:21:06.961Z,6.90
2022-10-07T04:23:36.693Z,6.90
2022-10-07T04:26:09.851Z,6.90
2022-10-07T04:28:39.146Z,7.50
2022-10-07T04:31:11.734Z,6.40
2022-10-07T04:33:46.406Z,7.80
2022-10-07T04:36:18.012Z,7.00
2022-10-07T04:38:50.571Z,7.30
2022-10-07T04:41:20.866Z,7.20
2022-10-07T04:43:56.849Z,7.50
2022-10-07T04:46:28.478Z,9.00
2022-10-07T04:49:01.469Z,9.70
2022-10-07T04:51:31.296Z,12.30
2022-10-07T04:54:00.575Z,22.40
2022-10-07T04:56:43.067Z,16.70
2022-10-07T04:59:12.895Z,16.20
2022-10-07T05:01:41.447Z,13.50
2022-10-07T05:04:10.854Z,13.80
2022-10-07T05:06:39.462Z,13.00
2022-10-07T05:09:07.869Z,12.80
2022-10-07T05:11:38.221Z,12.50
2022-10-07T05:14:10.163Z,11.40
2022-10-07T05:16:38.406Z,11.70
2022-10-07T05:19:06.674Z,11.10
2022-10-07T05:21:34.660Z,12.20
2022-10-07T05:24:02.884Z,11.10
2022-10-07T05:26:35.342Z,12.00
2022-10-07T05:29:03.949Z,11.50
2022-10-07T05:31:37.779Z,11.20
2022-10-07T05:34:06.115Z,12.70
2022-10-07T05:36:35.112Z,11.60
2022-10-07T05:39:03.934Z,12.20
2022-10-07T05:41:45.663Z,13.10
2022-10-07T05:44:15.209Z,14.30
2022-10-07T05:46:43.735Z,14.00
2022-10-07T05:49:12.354Z,14.00
2022-10-07T05:51:41.405Z,15.50
2022-10-07T05:54:09.868Z,15.20
2022-10-07T05:56:41.797Z,13.90
2022-10-07T05:59:10.610Z,13.10
2022-10-07T06:01:41.486Z,13.40
2022-10-07T06:04:13.802Z,12.20
2022-10-07T06:06:43.298Z,12.20
2022-10-07T06:09:30.811Z,11.40
2022-10-07T06:12:18.650Z,12.30
2022-10-07T06:14:47.356Z,13.20
2022-10-07T06:17:16.568Z,14.20
2022-10-07T06:19:45.923Z,13.40
2022-10-07T06:22:15.390Z,12.80
2022-10-07T06:24:43.848Z,11.70
2022-10-07T06:27:12.210Z,12.70
2022-10-07T06:29:42.626Z,13.00
2022-10-07T06:32:11.275Z,14.40
2022-10-07T06:34:40.247Z,15.00
2022-10-07T06:37:08.394Z,16.00
2022-10-07T06:39:36.364Z,17.40
2022-10-07T06:42:04.781Z,17.10
2022-10-07T06:44:57.186Z,14.70
2022-10-07T06:47:25.377Z,11.70
2022-10-07T06:49:53.638Z,14.30
2022-10-07T06:52:21.950Z,16.20
2022-10-07T06:54:50.186Z,15.50
2022-10-07T06:57:44.375Z,16.80
2022-10-07T07:00:07.820Z,16.80
2022-10-07T07:02:36.672Z,19.70
2022-10-07T07:05:08.683Z,15.30
2022-10-07T07:07:38.341Z,17.10
2022-10-07T07:10:07.755Z,17.30
2022-10-07T07:12:37.283Z,17.50
2022-10-07T07:15:07.041Z,14.60
2022-10-07T07:17:35.231Z,16.90
2022-10-07T07:20:03.515Z,14.50
2022-10-07T07:22:31.555Z,14.30
2022-10-07T07:24:59.843Z,13.20
2022-10-07T07:27:28.269Z,14.90
2022-10-07T07:29:58.719Z,11.70
2022-10-07T07:32:28.125Z,12.80
2022-10-07T07:34:57.105Z,11.70
2022-10-07T07:37:25.563Z,10.60
2022-10-07T07:43:11.785Z,10.90
2022-10-07T07:45:40.211Z,11.60
2022-10-07T07:48:08.283Z,11.30
2022-10-07T07:50:40.318Z,10.50
2022-10-07T07:53:10.405Z,12.20
2022-10-07T07:55:38.582Z,11.30
2022-10-07T07:58:11.685Z,10.40
2022-10-07T08:00:40.953Z,11.60
2022-10-07T08:03:09.285Z,10.10
2022-10-07T08:05:37.756Z,9.30
2022-10-07T08:08:05.985Z,10.50
2022-10-07T08:10:35.021Z,8.50
2022-10-07T08:13:03.341Z,10.50
2022-10-07T08:15:31.908Z,9.70
2022-10-07T08:18:00.416Z,10.00
2022-10-07T08:20:29.558Z,8.70
2022-10-07T08:22:59.944Z,9.90
2022-10-07T08:25:28.362Z,12.60
2022-10-07T08:27:57.931Z,9.90
2022-10-07T08:30:26.052Z,10.40
2022-10-07T08:32:59.007Z,9.40
2022-10-07T08:35:29.169Z,8.50
2022-10-07T08:37:57.189Z,8.80
2022-10-07T08:40:25.066Z,9.70
2022-10-07T08:42:54.908Z,9.40
2022-10-07T08:45:30.765Z,10.40
2022-10-07T08:48:03.406Z,9.70
2022-10-07T08:50:59.454Z,8.90
2022-10-07T08:53:34.235Z,9.40
2022-10-07T08:56:14.766Z,8.30
2022-10-07T08:58:49.304Z,7.70
2022-10-07T09:01:32.953Z,8.70
2022-10-07T09:04:23.841Z,8.90
2022-10-07T09:07:02.338Z,8.60
2022-10-07T09:09:45.483Z,8.60
2022-10-07T09:12:23.133Z,9.00
2022-10-07T09:14:56.211Z,9.00
2022-10-07T09:17:34.205Z,9.00
2022-10-07T09:20:29.113Z,7.40
2022-10-07T09:22:59.453Z,8.80
2022-10-07T09:25:30.456Z,7.60
2022-10-07T09:27:58.724Z,7.60
2022-10-07T09:30:32.541Z,6.40
2022-10-07T09:33:01.476Z,6.80
2022-10-07T09:35:31.992Z,7.00
2022-10-07T09:38:08.277Z,7.60
2022-10-07T09:41:07.505Z,7.70
2022-10-07T09:43:36.879Z,6.60
2022-10-07T09:46:05.531Z,7.80
2022-10-07T09:48:34.924Z,7.20
2022-10-07T09:51:18.825Z,5.10
2022-10-07T09:54:03.222Z,6.90
2022-10-07T09:56:46.007Z,7.40
2022-10-07T09:59:24.724Z,7.40
2022-10-07T10:02:02.540Z,7.10
2022-10-07T10:04:34.631Z,6.60
2022-10-07T10:07:17.251Z,7.50
2022-10-07T10:09:51.094Z,7.00
2022-10-07T10:12:22.002Z,6.90
2022-10-07T10:14:53.578Z,5.90
2022-10-07T10:17:38.429Z,6.00
2022-10-07T10:20:28.059Z,6.60
2022-10-07T10:22:56.719Z,5.30
2022-10-07T10:26:33.309Z,6.40
2022-10-07T10:29:13.914Z,5.40
2022-10-07T10:32:03.237Z,6.50
2022-10-07T10:34:49.951Z,5.30
2022-10-07T10:37:22.118Z,6.30
2022-10-07T10:40:25.639Z,5.50
2022-10-07T10:43:06.224Z,5.30
2022-10-07T10:46:08.749Z,4.70
2022-10-07T10:48:47.005Z,4.10
2022-10-07T10:51:21.509Z,3.70
2022-10-07T10:54:34.326Z,4.10
2022-10-07T10:57:16.090Z,3.50
2022-10-07T11:00:05.547Z,4.10
2022-10-07T11:02:49.229Z,3.30
2022-10-07T11:05:24.994Z,3.20
2022-10-07T11:08:01.751Z,3.70
2022-10-07T11:10:44.617Z,3.10
2022-10-07T11:13:25.684Z,3.70
2022-10-07T11:16:06.197Z,3.80
2022-10-07T11:18:42.263Z,2.80
2022-10-07T11:21:16.817Z,2.50
2022-10-07T11:23:54.002Z,3.00
2022-10-07T11:26:37.781Z,2.30
2022-10-07T11:29:23.161Z,2.70
2022-10-07T11:32:00.859Z,2.60
2022-10-07T11:34:42.224Z,2.50
2022-10-07T11:37:21.707Z,2.60
2022-10-07T11:39:51.314Z,2.60
2022-10-07T11:42:29.024Z,3.30
2022-10-07T11:45:04.377Z,2.60
2022-10-07T11:47:43.619Z,3.40
2022-10-07T11:50:23.185Z,3.00
2022-10-07T11:52:55.278Z,3.10
2022-10-07T11:55:29.432Z,3.10
2022-10-07T11:57:59.787Z,2.80
2022-10-07T12:00:34.500Z,2.60
2022-10-07T12:03:31.882Z,2.40
2022-10-07T12:06:17.993Z,2.70
2022-10-07T12:08:46.616Z,2.30
2022-10-07T12:11:15.067Z,2.40
2022-10-07T12:13:45.367Z,2.60
2022-10-07T12:16:30.077Z,2.60
2022-10-07T12:19:08.198Z,2.60
2022-10-07T12:22:15.078Z,2.80
2022-10-07T12:24:46.195Z,3.00
2022-10-07T12:27:29.522Z,3.10
2022-10-07T12:30:02.308Z,2.90
2022-10-07T12:33:00.859Z,3.00
2022-10-07T12:35:34.708Z,2.90
2022-10-07T12:38:15.446Z,2.70
2022-10-07T12:40:50.052Z,3.10
2022-10-07T12:43:46.032Z,3.40
2022-10-07T12:46:18.743Z,3.40
2022-10-07T12:49:37.289Z,3.70
2022-10-07T12:52:14.664Z,3.10
2022-10-07T12:54:45.619Z,3.20
2022-10-07T12:57:19.897Z,2.90
2022-10-07T13:00:01.251Z,3.20
2022-10-07T13:02:32.841Z,3.40
2022-10-07T13:05:38.754Z,3.30
2022-10-07T13:08:16.066Z,4.00
2022-10-07T13:11:05.593Z,3.40
2022-10-07T13:13:52.446Z,3.40
2022-10-07T13:16:48.488Z,2.80
2022-10-07T13:19:19.374Z,2.90
2022-10-07T13:21:58.471Z,2.40
2022-10-07T13:24:28.538Z,2.80
2022-10-07T13:26:57.972Z,2.50
2022-10-07T13:29:31.297Z,2.50
2022-10-07T13:32:16.355Z,2.30
2022-10-07T13:34:48.195Z,2.70
2022-10-07T13:37:31.237Z,2.10
2022-10-07T13:40:20.237Z,2.40
2022-10-07T13:43:04.868Z,2.20
2022-10-07T13:45:43.229Z,2.10
2022-10-07T13:48:17.177Z,2.10
2022-10-07T13:50:45.615Z,2.00
2022-10-07T13:53:32.670Z,2.40
2022-10-07T13:56:22.774Z,2.20
2022-10-07T13:58:55.287Z,2.30
2022-10-07T14:01:27.621Z,2.30
2022-10-07T14:04:08.095Z,2.20
2022-10-07T14:06:48.993Z,2.40
2022-10-07T14:09:26.316Z,2.60
2022-10-07T14:11:57.610Z,2.40
2022-10-07T14:14:32.657Z,2.40
2022-10-07T14:17:00.774Z,2.40
2022-10-07T14:19:33.019Z,2.50
2022-10-07T14:22:04.592Z,2.40
2022-10-07T14:24:32.464Z,2.40
2022-10-07T14:27:00.540Z,2.30
2022-10-07T14:29:35.401Z,3.30
2022-10-07T14:35:23.149Z,2.90
2022-10-07T14:37:51.106Z,2.80
2022-10-07T14:40:23.384Z,2.90
2022-10-07T14:42:54.332Z,3.20
2022-10-07T14:45:22.512Z,2.70
2022-10-07T14:47:50.840Z,3.10
2022-10-07T14:50:19.783Z,3.10
2022-10-07T14:52:52.112Z,2.80
2022-10-07T14:55:27.932Z,3.10
2022-10-07T14:57:56.690Z,3.60
2022-10-07T15:00:29.550Z,3.20
2022-10-07T15:02:58.362Z,3.20
2022-10-07T15:05:27.038Z,3.30
2022-10-07T15:07:55.045Z,3.00
2022-10-07T15:10:26.361Z,3.50
2022-10-07T15:12:56.139Z,3.90
2022-10-07T15:15:24.244Z,3.50
2022-10-07T15:17:52.099Z,4.20
2022-10-07T15:20:21.411Z,5.40
2022-10-07T15:22:51.157Z,4.20
2022-10-07T15:25:19.501Z,4.70
2022-10-07T15:27:47.592Z,5.30
2022-10-07T15:30:15.472Z,6.20
2022-10-07T15:32:44.176Z,6.10
2022-10-07T15:35:12.605Z,5.30
2022-10-07T15:37:45.716Z,5.80
2022-10-07T15:40:14.849Z,6.30
2022-10-07T15:42:44.904Z,6.70
2022-10-07T15:45:13.204Z,7.30
2022-10-07T15:47:40.988Z,6.90
2022-10-07T15:50:10.004Z,6.40
2022-10-07T15:52:37.993Z,6.80
2022-10-07T15:55:07.759Z,6.70
2022-10-07T15:57:35.995Z,6.40
2022-10-07T16:00:05.128Z,7.10
2022-10-07T16:02:40.187Z,6.20
2022-10-07T16:05:09.958Z,6.30
2022-10-07T16:07:38.185Z,6.70
2022-10-07T16:10:10.791Z,8.50
2022-10-07T16:12:41.624Z,7.20
2022-10-07T16:15:10.440Z,7.50
2022-10-07T16:17:38.397Z,7.60
2022-10-07T16:20:11.004Z,7.60
2022-10-07T16:22:39.411Z,8.20
2022-10-07T16:25:07.802Z,7.40
2022-10-07T16:27:54.337Z,6.50
2022-10-07T16:30:40.677Z,7.70
2022-10-07T16:33:08.889Z,6.40
2022-10-07T16:35:36.815Z,6.30
2022-10-07T16:38:05.533Z,6.60
2022-10-07T16:40:33.433Z,7.00
2022-10-07T16:43:01.308Z,7.70
2022-10-07T16:45:29.179Z,9.00
2022-10-07T16:47:57.150Z,8.50
2022-10-07T16:50:25.099Z,11.00
2022-10-07T16:52:53.016Z,11.60
2022-10-07T16:55:20.853Z,9.10
2022-10-07T16:57:49.019Z,10.70
2022-10-07T17:00:17.541Z,9.60
2022-10-07T17:02:45.376Z,11.20
2022-10-07T17:05:13.157Z,11.50
2022-10-07T17:07:40.909Z,10.60
2022-10-07T17:10:09.709Z,11.10
2022-10-07T17:12:40.745Z,9.20
2022-10-07T17:15:09.511Z,9.40
2022-10-07T17:17:37.456Z,8.90
2022-10-07T17:20:05.777Z,9.30
2022-10-07T17:22:33.573Z,9.40
2022-10-07T17:25:03.961Z,10.20
2022-10-07T17:27:32.093Z,11.20
2022-10-07T17:30:00.566Z,10.00
2022-10-07T17:32:28.436Z,10.50
2022-10-07T17:34:56.391Z,11.00
2022-10-07T17:37:25.026Z,11.00
2022-10-07T17:39:52.851Z,10.80
2022-10-07T17:42:20.566Z,12.80
2022-10-07T17:44:48.327Z,12.50
2022-10-07T17:47:16.234Z,13.60
2022-10-07T17:49:44.131Z,14.00
2022-10-07T17:52:13.335Z,14.30
2022-10-07T17:54:41.376Z,13.70
2022-10-07T17:57:09.270Z,13.90
2022-10-07T17:59:38.905Z,13.80
2022-10-07T18:02:06.812Z,13.60
2022-10-07T18:04:34.808Z,12.70
2022-10-07T18:07:02.571Z,13.60
2022-10-07T18:09:30.430Z,12.40
2022-10-07T18:12:17.174Z,15.60
2022-10-07T18:15:03.721Z,13.90
2022-10-07T18:17:31.903Z,15.10
2022-10-07T18:20:01.088Z,14.50
2022-10-07T18:22:28.939Z,15.30
2022-10-07T18:24:58.566Z,13.70
2022-10-07T18:27:27.594Z,15.30
2022-10-07T18:29:56.142Z,15.30
2022-10-07T18:32:25.239Z,13.70
2022-10-07T18:34:52.988Z,14.60
2022-10-07T18:37:21.210Z,15.50
2022-10-07T18:39:49.698Z,15.60
2022-10-07T18:42:17.733Z,17.20
2022-10-07T18:44:45.590Z,15.40
2022-10-07T18:47:13.469Z,16.50
2022-10-07T18:49:41.816Z,14.40
2022-10-07T18:52:09.594Z,15.90
2022-10-07T18:54:37.444Z,15.90
2022-10-07T18:57:05.258Z,15.10
2022-10-07T18:59:33.027Z,14.90
2022-10-07T19:02:00.890Z,14.70
2022-10-07T19:04:31.019Z,16.90
2022-10-07T19:06:58.827Z,16.90
2022-10-07T19:09:27.229Z,15.50
2022-10-07T19:11:55.343Z,16.40
2022-10-07T19:14:26.160Z,16.90
2022-10-07T19:16:53.997Z,15.60
2022-10-07T19:19:23.723Z,16.40
2022-10-07T19:21:54.507Z,16.40
2022-10-07T19:24:45.867Z,15.80
2022-10-07T19:27:14.379Z,15.90
2022-10-07T19:29:42.178Z,14.30
2022-10-07T19:32:09.994Z,12.50
2022-10-07T19:34:37.834Z,16.80
2022-10-07T19:37:06.210Z,16.50
2022-10-07T19:39:34.331Z,15.50
2022-10-07T19:42:02.071Z,18.50
2022-10-07T19:44:30.512Z,19.60
2022-10-07T19:46:58.455Z,17.80
2022-10-07T19:49:26.257Z,20.10
2022-10-07T19:51:54.124Z,19.20
2022-10-07T19:54:22.088Z,18.60
2022-10-07T19:56:49.826Z,20.50
2022-10-07T19:59:18.196Z,21.30
2022-10-07T20:01:47.642Z,18.00
2022-10-07T20:04:19.047Z,19.20
2022-10-07T20:06:47.693Z,18.50
2022-10-07T20:09:17.783Z,17.90
2022-10-07T20:11:46.985Z,18.60
2022-10-07T20:14:16.258Z,19.50
2022-10-07T20:16:44.444Z,20.60
2022-10-07T20:19:15.931Z,22.50
2022-10-07T20:21:44.417Z,20.00
2022-10-07T20:24:15.314Z,19.80
2022-10-07T20:26:44.296Z,19.20
2022-10-07T20:29:15.259Z,19.40
2022-10-07T20:31:44.326Z,18.90
2022-10-07T20:34:16.017Z,17.30
2022-10-07T20:36:44.350Z,17.50
2022-10-07T20:39:35.154Z,17.30
2022-10-07T20:42:22.003Z,16.80
2022-10-07T20:44:51.231Z,16.40
2022-10-07T20:47:20.464Z,15.20
2022-10-07T20:49:50.884Z,14.10
2022-10-07T20:52:22.120Z,10.90
2022-10-07T20:54:51.300Z,10.70
2022-10-07T20:57:37.867Z,11.70
2022-10-07T21:00:16.349Z,11.70
2022-10-07T21:02:44.653Z,10.10
2022-10-07T21:05:13.748Z,11.00
2022-10-07T21:07:42.263Z,9.70
2022-10-07T21:10:10.004Z,9.70
2022-10-07T21:12:38.513Z,9.10
2022-10-07T21:15:06.946Z,8.10
2022-10-07T21:17:34.880Z,9.20
2022-10-07T21:20:02.831Z,8.70
2022-10-07T21:22:30.608Z,9.60
2022-10-07T21:24:58.696Z,10.00
2022-10-07T21:27:26.514Z,10.70
2022-10-07T21:29:54.365Z,10.40
2022-10-07T21:32:22.304Z,11.40
2022-10-07T21:34:50.616Z,10.90
2022-10-07T21:37:18.371Z,11.30
2022-10-07T21:39:46.243Z,11.30
2022-10-07T21:42:15.853Z,11.90
2022-10-07T21:44:44.408Z,11.60
2022-10-07T21:47:12.289Z,12.10
2022-10-07T21:49:41.259Z,11.60
2022-10-07T21:52:09.002Z,12.10
2022-10-07T21:54:38.494Z,12.30
2022-10-07T21:57:06.723Z,12.80
2022-10-07T21:59:35.320Z,12.60
2022-10-07T22:02:03.110Z,13.10
2022-10-07T22:04:30.976Z,12.70
2022-10-07T22:07:17.341Z,12.10
2022-10-07T22:09:45.713Z,12.60
2022-10-07T22:12:15.414Z,13.00
2022-10-07T22:14:43.133Z,13.20
2022-10-07T22:17:12.041Z,13.60
2022-10-07T22:19:40.448Z,13.00
2022-10-07T22:22:08.209Z,13.10
2022-10-07T22:24:35.936Z,13.40
2022-10-07T22:27:04.604Z,14.30
2022-10-07T22:29:32.401Z,14.00
2022-10-07T22:32:00.209Z,13.60
2022-10-07T22:34:46.658Z,13.50
2022-10-07T22:37:14.401Z,13.20
2022-10-07T22:39:42.185Z,12.40
2022-10-07T22:42:10.025Z,12.40
2022-10-07T22:44:37.767Z,12.80
2022-10-07T22:47:05.500Z,12.20
2022-10-07T22:49:33.197Z,11.80
2022-10-07T22:52:00.986Z,12.10
2022-10-07T22:54:29.972Z,11.20
2022-10-07T22:56:57.680Z,11.00
2022-10-07T22:59:25.516Z,11.40
2022-10-07T23:01:53.466Z,10.80
2022-10-07T23:04:21.576Z,11.00
2022-10-07T23:06:49.659Z,11.10
2022-10-07T23:09:17.460Z,11.50
2022-10-07T23:11:45.919Z,12.00
2022-10-07T23:14:13.911Z,11.60
2022-10-07T23:16:42.030Z,12.70
2022-10-07T23:19:09.845Z,12.10
2022-10-07T23:21:37.605Z,12.60
2022-10-07T23:24:07.996Z,12.30
2022-10-07T23:26:37.333Z,11.80
2022-10-07T23:29:07.645Z,11.40
2022-10-07T23:31:35.650Z,11.00
2022-10-07T23:34:04.938Z,11.60
2022-10-07T23:36:34.962Z,11.20
2022-10-07T23:39:03.023Z,10.40
2022-10-07T23:41:31.605Z,10.50
2022-10-07T23:44:02.302Z,10.20
2022-10-07T23:46:33.154Z,9.20
2022-10-07T23:49:01.870Z,9.80
2022-10-07T23:51:31.953Z,9.00
2022-10-07T23:54:03.203Z,9.20
2022-10-07T23:56:31.709Z,10.20
2022-10-07T23:59:00.624Z,9.70
